This is the latest recevied weather packets stored in our database for station/object KJ4EBE. If no packets are shown the sender has not sent any weather packets the latest 10 day(s).
| Time | Temp. | Humidity | Pressure | Rain* | Wind** | Luminosity | Snow |
|---|---|---|---|---|---|---|---|
| 1777069579 | 35.56° C | 43% | 1004.2 hPa | 0 mm | - | 300 W/m² | - |
| 1777069275 | 35° C | 46% | 1004.3 hPa | 0 mm | - | 318 W/m² | - |
| 1777068972 | 33.33° C | 51% | 1004.4 hPa | 0 mm | - | 338 W/m² | - |
| 1777068668 | 34.44° C | 44% | 1004.3 hPa | 0 mm | - | 239 W/m² | - |
| 1777068368 | 33.89° C | 46% | 1004.4 hPa | 0 mm | - | 386 W/m² | - |
| 1777068063 | 35° C | 45% | 1004.6 hPa | 0 mm | - | 390 W/m² | - |
| 1777067756 | 33.89° C | 46% | 1004.3 hPa | 0 mm | - | 305 W/m² | - |
| 1777067451 | 33.89° C | 46% | 1004.2 hPa | 0 mm | - | 253 W/m² | - |
| 1777067150 | 35° C | 43% | 1004.6 hPa | 0 mm | - | 476 W/m² | - |
| 1777066846 | 34.44° C | 51% | 1004.5 hPa | 0 mm | - | 469 W/m² | - |
| 1777066541 | 33.89° C | 49% | 1004.6 hPa | 0 mm | - | 305 W/m² | - |
| 1777066237 | 33.89° C | 49% | 1004.6 hPa | 0 mm | - | 533 W/m² | - |
| 1777065937 | 33.89° C | 52% | 1004.5 hPa | 0 mm | - | 544 W/m² | - |
| 1777065633 | 33.33° C | 52% | 1004.7 hPa | 0 mm | - | 254 W/m² | - |
| 1777065333 | 33.33° C | 52% | 1004.7 hPa | 0 mm | - | 259 W/m² | - |
| 1777065028 | 33.33° C | 50% | 1005 hPa | 0 mm | - | 274 W/m² | - |
| 1777064726 | 33.33° C | 51% | 1004.9 hPa | 0 mm | - | 278 W/m² | - |
| 1777064422 | 33.89° C | 47% | 1005 hPa | 0 mm | - | 452 W/m² | - |
| 1777064118 | 33.33° C | 49% | 1005.1 hPa | 0 mm | - | 359 W/m² | - |
| 1777063818 | 33.33° C | 53% | 1005.1 hPa | 0 mm | - | 519 W/m² | - |
| 1777063513 | 32.78° C | 52% | 1005.2 hPa | 0 mm | - | 370 W/m² | - |
| 1777063209 | 33.89° C | 50% | 1005.1 hPa | 0 mm | - | 371 W/m² | - |
| 1777062906 | 33.89° C | 54% | 1005.4 hPa | 0 mm | - | 396 W/m² | - |
| 1777062602 | 33.89° C | 51% | 1005.3 hPa | 0 mm | - | 467 W/m² | - |
| 1777062300 | 34.44° C | 51% | 1005.5 hPa | 0 mm | - | 399 W/m² | - |
* Rain latest hour (hover to see other rain measurements)
** Current wind speed in m/s (hover to see current wind gust speed)